Archer, Idaho
Current Conditions -  °F | °C
As of 11:53 AM on Friday 28 Nov 2014 (Local Time) from KRXE Reporting Station
Clear Clear  
Wind Chill: 10°   Ceiling: Unl
Heat Index: 10°   Visibility: 10mi
Dew Point: -4°   Wind: 17mph
Humidity: 36%   Direction: 210°SSW
Pressure: 29.83"   Gusts: 26mph
Location:  43.7568°N, 111.624°W
Report Text: KRXE 281853Z AUTO 21015G23KT 10SM CLR 10/M04 A2983 RMK AO2 PK WND 20027/1816 SLP091 T01001044
Loading
Personal Weather Stations






























Interactive Weather Map New forecast layout! Learn more

10-Day Weather Forecast

Advertisements
Track Severe Weather on mobile